Main page
METAR-TAF:

METAR-TAF

Airports :

McGhee Tyson Airport

Knoxville, Iowa, United States

latitude: 41-18N, longitude: 093-07W, elevation: 928 ft

Current weather observation

The report was made 15 minutes ago, at 06:15 UTC
Wind 9 mph from the South/Southwest
Temperature 45°F
Humidity 42%
Pressure 30.13 in. Hg
Visibility: 10 miles
Clear sky

METAR: KOXV 220615Z AUTO 21008KT 10SM CLR 07/M05 A3013 RMK AO2

Time: 01:30 (06:30 UTC)


TAF: missing

Weather observations and forecasts of more than 4000 airports (METAR and TAF reports).

The available stations are represented by yellow and red dots on the map.

Hover mouse over dot to see the name of the station.

Then click to see weather observations and forecasts.

To change the map : click on the green buttons with a black cross to zoom in, on the green button with a dash to zoom out, or on the green arrows for adjacent maps.


METAR-TAF: